createdAt,value
2023-03-10T00:00:08.796Z,11.84
2023-03-10T00:02:37.592Z,11.68
2023-03-10T00:05:05.970Z,11.67
2023-03-10T00:07:33.538Z,11.49
2023-03-10T00:10:01.447Z,11.56
2023-03-10T00:12:29.538Z,11.52
2023-03-10T00:14:57.561Z,11.38
2023-03-10T00:17:28.673Z,11.15
2023-03-10T00:19:56.846Z,11.56
2023-03-10T00:22:24.508Z,11.63
2023-03-10T00:24:54.998Z,11.09
2023-03-10T00:27:22.464Z,11.02
2023-03-10T00:29:51.754Z,11.26
2023-03-10T00:32:20.704Z,10.91
2023-03-10T00:34:48.858Z,10.65
2023-03-10T00:37:18.987Z,10.45
2023-03-10T00:39:52.090Z,10.57
2023-03-10T00:42:20.816Z,10.47
2023-03-10T00:44:49.639Z,10.47
2023-03-10T00:47:17.479Z,10.44
2023-03-10T00:49:45.492Z,10.35
2023-03-10T00:52:13.338Z,10.43
2023-03-10T00:54:42.093Z,10.30
2023-03-10T00:57:10.004Z,10.31
2023-03-10T00:59:49.900Z,10.31
2023-03-10T01:02:21.733Z,10.28
2023-03-10T01:04:49.818Z,10.14
2023-03-10T01:07:17.955Z,10.10
2023-03-10T01:09:45.874Z,10.20
2023-03-10T01:12:13.972Z,10.12
2023-03-10T01:14:41.504Z,10.13
2023-03-10T01:17:10.595Z,9.97
2023-03-10T01:19:38.770Z,9.98
2023-03-10T01:22:06.869Z,9.94
2023-03-10T01:24:35.003Z,10.00
2023-03-10T01:27:03.971Z,9.88
2023-03-10T01:29:31.500Z,9.92
2023-03-10T01:31:59.006Z,9.80
2023-03-10T01:34:26.898Z,9.73
2023-03-10T01:36:55.154Z,10.00
2023-03-10T01:39:22.862Z,9.66
2023-03-10T01:41:50.911Z,9.38
2023-03-10T01:44:21.250Z,9.45
2023-03-10T01:46:54.888Z,9.30
2023-03-10T01:49:36.533Z,9.09
2023-03-10T01:52:12.006Z,9.04
2023-03-10T01:54:50.022Z,9.04
2023-03-10T01:57:20.872Z,9.12
2023-03-10T01:59:50.021Z,9.11
2023-03-10T02:02:18.802Z,8.99
2023-03-10T02:04:48.856Z,9.08
2023-03-10T02:07:25.279Z,9.05
2023-03-10T02:09:54.604Z,8.88
2023-03-10T02:12:22.301Z,8.85
2023-03-10T02:14:52.149Z,9.18
2023-03-10T02:17:22.035Z,9.05
2023-03-10T02:20:12.658Z,8.73
2023-03-10T02:22:40.944Z,8.84
2023-03-10T02:25:47.645Z,8.66
2023-03-10T02:28:15.752Z,8.66
2023-03-10T02:30:47.329Z,8.66
2023-03-10T02:33:23.255Z,8.66
2023-03-10T02:35:51.891Z,8.57
2023-03-10T02:38:21.141Z,8.45
2023-03-10T02:40:52.829Z,8.51
2023-03-10T02:43:29.382Z,8.53
2023-03-10T02:46:01.863Z,8.39
2023-03-10T02:48:33.210Z,8.30
2023-03-10T02:51:05.369Z,8.34
2023-03-10T02:53:34.095Z,8.28
2023-03-10T02:56:02.393Z,8.25
2023-03-10T02:58:32.588Z,8.28
2023-03-10T03:01:01.358Z,8.38
2023-03-10T03:03:29.416Z,8.40
2023-03-10T03:05:58.197Z,8.24
2023-03-10T03:08:27.965Z,8.26
2023-03-10T03:10:57.070Z,8.11
2023-03-10T03:13:24.796Z,8.06
2023-03-10T03:15:53.367Z,8.14
2023-03-10T03:18:22.342Z,8.37
2023-03-10T03:20:51.041Z,8.48
2023-03-10T03:23:20.008Z,8.12
2023-03-10T03:25:48.044Z,7.84
2023-03-10T03:28:16.039Z,7.99
2023-03-10T03:30:45.063Z,7.85
2023-03-10T03:33:14.093Z,7.82
2023-03-10T03:35:43.694Z,7.87
2023-03-10T03:38:11.833Z,7.87
2023-03-10T03:40:41.517Z,7.86
2023-03-10T03:43:10.400Z,7.90
2023-03-10T03:45:38.311Z,7.77
2023-03-10T03:48:06.130Z,7.73
2023-03-10T03:50:34.565Z,7.64
2023-03-10T03:53:04.769Z,7.81
2023-03-10T03:55:34.811Z,8.01
2023-03-10T03:58:02.218Z,8.09
2023-03-10T04:00:31.073Z,7.70
2023-03-10T04:03:00.782Z,7.42
2023-03-10T04:05:29.260Z,7.58
2023-03-10T04:07:58.021Z,7.69
2023-03-10T04:10:29.172Z,7.74
2023-03-10T04:12:57.537Z,7.74
2023-03-10T04:15:25.646Z,7.66
2023-03-10T04:17:53.824Z,7.46
2023-03-10T04:20:21.895Z,7.33
2023-03-10T04:22:52.329Z,7.26
2023-03-10T04:25:21.141Z,6.91
2023-03-10T04:27:49.591Z,7.10
2023-03-10T04:30:18.232Z,7.28
2023-03-10T04:32:49.137Z,7.43
2023-03-10T04:35:17.765Z,7.50
2023-03-10T04:37:46.701Z,7.36
2023-03-10T04:40:15.242Z,7.24
2023-03-10T04:42:45.158Z,7.26
2023-03-10T04:45:15.198Z,7.16
2023-03-10T04:47:43.894Z,7.14
2023-03-10T04:50:17.599Z,7.16
2023-03-10T04:52:46.791Z,7.09
2023-03-10T04:55:15.433Z,7.29
2023-03-10T04:57:43.506Z,7.30
2023-03-10T05:00:12.847Z,7.20
2023-03-10T05:02:41.135Z,7.20
2023-03-10T05:05:10.445Z,7.32
2023-03-10T05:07:41.566Z,7.17
2023-03-10T05:10:14.926Z,6.95
2023-03-10T05:12:43.995Z,7.05
2023-03-10T05:15:13.289Z,6.88
2023-03-10T05:17:42.853Z,6.99
2023-03-10T05:20:16.090Z,6.91
2023-03-10T05:22:46.126Z,7.11
2023-03-10T05:25:18.779Z,6.90
2023-03-10T05:27:49.261Z,7.00
2023-03-10T05:30:17.673Z,7.15
2023-03-10T05:32:46.572Z,7.42
2023-03-10T05:35:16.188Z,7.03
2023-03-10T05:37:45.182Z,6.92
2023-03-10T05:40:19.655Z,7.02
2023-03-10T05:42:50.009Z,6.95
2023-03-10T05:45:18.768Z,7.04
2023-03-10T05:47:48.131Z,7.13
2023-03-10T05:50:18.590Z,7.17
2023-03-10T05:52:46.938Z,7.36
2023-03-10T05:55:19.945Z,7.47
2023-03-10T05:57:51.941Z,7.76
2023-03-10T06:00:21.070Z,7.63
2023-03-10T06:02:54.886Z,7.37
2023-03-10T06:05:24.152Z,7.35
2023-03-10T06:07:52.822Z,7.29
2023-03-10T06:10:22.085Z,7.36
2023-03-10T06:12:50.499Z,7.50
2023-03-10T06:15:20.005Z,7.57
2023-03-10T06:17:47.880Z,7.66
2023-03-10T06:20:17.055Z,7.72
2023-03-10T06:22:47.856Z,7.88
2023-03-10T06:25:17.653Z,7.87
2023-03-10T06:27:47.014Z,8.24
2023-03-10T06:30:17.892Z,8.17
2023-03-10T06:32:46.635Z,8.24
2023-03-10T06:35:15.170Z,8.18
2023-03-10T06:37:45.134Z,8.39
2023-03-10T06:40:18.103Z,8.48
2023-03-10T06:42:48.221Z,8.91
2023-03-10T06:45:17.987Z,8.83
2023-03-10T06:47:48.727Z,8.90
2023-03-10T06:50:19.492Z,9.22
2023-03-10T06:52:58.793Z,9.33
2023-03-10T06:55:32.986Z,9.32
2023-03-10T06:58:01.767Z,9.44
2023-03-10T07:00:30.768Z,9.71
2023-03-10T07:03:00.874Z,10.12
2023-03-10T07:05:29.497Z,10.50
2023-03-10T07:07:59.540Z,10.45
2023-03-10T07:10:28.544Z,10.59
2023-03-10T07:12:59.127Z,10.56
2023-03-10T07:15:28.734Z,10.97
2023-03-10T07:17:57.848Z,11.17
2023-03-10T07:20:25.500Z,11.25
2023-03-10T07:22:53.384Z,11.34
2023-03-10T07:25:21.979Z,11.58
2023-03-10T07:27:51.207Z,11.64
2023-03-10T07:30:20.733Z,11.62
2023-03-10T07:32:55.842Z,11.54
2023-03-10T07:35:24.873Z,11.92
2023-03-10T07:37:53.908Z,12.18
2023-03-10T07:40:25.242Z,12.20
2023-03-10T07:42:56.890Z,12.26
2023-03-10T07:45:27.561Z,12.35
2023-03-10T07:47:55.423Z,12.46
2023-03-10T07:50:25.892Z,12.89
2023-03-10T07:52:55.744Z,13.23
2023-03-10T07:55:24.630Z,13.42
2023-03-10T07:57:53.202Z,13.34
2023-03-10T08:00:21.218Z,13.38
2023-03-10T08:02:56.046Z,13.84
2023-03-10T08:05:24.190Z,13.63
2023-03-10T08:07:53.708Z,14.01
2023-03-10T08:10:21.247Z,13.84
2023-03-10T08:12:49.009Z,13.96
2023-03-10T08:15:17.909Z,14.25
2023-03-10T08:17:47.093Z,14.35
2023-03-10T08:20:16.091Z,14.59
2023-03-10T08:22:47.218Z,14.86
2023-03-10T08:25:15.021Z,15.03
2023-03-10T08:27:44.023Z,14.62
2023-03-10T08:30:19.959Z,14.88
2023-03-10T08:32:50.788Z,15.14
2023-03-10T08:35:28.695Z,15.31
2023-03-10T08:37:56.921Z,15.19
2023-03-10T08:40:28.464Z,15.31
2023-03-10T08:42:57.385Z,15.42
2023-03-10T08:45:26.005Z,15.44
2023-03-10T08:47:55.793Z,15.49
2023-03-10T08:50:24.822Z,15.41
2023-03-10T08:52:54.697Z,15.79
2023-03-10T08:55:25.110Z,15.64
2023-03-10T08:57:54.590Z,15.81
2023-03-10T09:00:25.674Z,15.98
2023-03-10T09:02:53.902Z,15.95
2023-03-10T09:05:22.106Z,15.89
2023-03-10T09:07:55.893Z,16.20
2023-03-10T09:10:25.059Z,16.30
2023-03-10T09:13:01.098Z,16.27
2023-03-10T09:15:41.542Z,16.38
2023-03-10T09:18:12.284Z,16.10
2023-03-10T09:20:43.187Z,16.35
2023-03-10T09:23:18.044Z,16.25
2023-03-10T09:25:49.100Z,16.29
2023-03-10T09:28:20.777Z,16.43
2023-03-10T09:30:51.059Z,16.40
2023-03-10T09:33:22.749Z,16.52
2023-03-10T09:36:06.001Z,16.85
2023-03-10T09:38:36.124Z,17.13
2023-03-10T09:41:19.023Z,17.11
2023-03-10T09:43:52.687Z,16.64
2023-03-10T09:46:25.968Z,17.18
2023-03-10T09:49:18.082Z,17.04
2023-03-10T09:51:50.662Z,17.07
2023-03-10T09:54:33.936Z,17.25
2023-03-10T09:57:04.703Z,17.22
2023-03-10T09:59:37.745Z,17.63
2023-03-10T10:02:21.129Z,17.65
2023-03-10T10:04:53.863Z,18.00
2023-03-10T10:07:25.736Z,18.17
2023-03-10T10:10:14.385Z,18.24
2023-03-10T10:12:43.733Z,18.16
2023-03-10T10:15:17.196Z,18.45
2023-03-10T10:18:08.335Z,18.22
2023-03-10T10:20:59.261Z,17.83
2023-03-10T10:24:01.720Z,18.40
2023-03-10T10:26:31.247Z,19.07
2023-03-10T10:29:26.620Z,18.88
2023-03-10T10:32:11.769Z,18.86
2023-03-10T10:34:47.441Z,19.24
2023-03-10T10:37:40.949Z,19.22
2023-03-10T10:40:24.718Z,18.85
2023-03-10T10:42:55.713Z,19.12
2023-03-10T10:45:54.587Z,18.91
2023-03-10T10:49:03.038Z,18.56
2023-03-10T10:51:36.093Z,17.89
2023-03-10T10:54:47.715Z,18.29
2023-03-10T10:57:25.443Z,18.82
2023-03-10T10:59:56.080Z,18.87
2023-03-10T11:02:34.689Z,18.74
2023-03-10T11:05:12.343Z,19.03
2023-03-10T11:07:40.655Z,19.21
2023-03-10T11:10:15.706Z,19.85
2023-03-10T11:13:06.885Z,20.11
2023-03-10T11:15:56.933Z,20.30
2023-03-10T11:18:36.003Z,20.12
2023-03-10T11:21:08.083Z,19.32
2023-03-10T11:23:57.895Z,19.48
2023-03-10T11:26:35.263Z,19.84
2023-03-10T11:29:29.133Z,19.95
2023-03-10T11:32:08.743Z,20.29
2023-03-10T11:34:43.790Z,20.27
2023-03-10T11:37:26.787Z,20.53
2023-03-10T11:40:11.897Z,20.20
2023-03-10T11:42:49.124Z,20.57
2023-03-10T11:45:53.774Z,20.63
2023-03-10T11:48:29.822Z,21.18
2023-03-10T11:51:00.843Z,21.30
2023-03-10T11:53:38.608Z,20.83
2023-03-10T11:56:12.662Z,21.01
2023-03-10T11:58:53.125Z,21.09
2023-03-10T12:01:31.601Z,20.88
2023-03-10T12:04:21.756Z,20.91
2023-03-10T12:12:27.315Z,22.05
2023-03-10T12:14:57.687Z,22.05
2023-03-10T12:22:46.884Z,21.75
2023-03-10T12:36:04.392Z,21.30
2023-03-10T12:41:46.015Z,20.69
2023-03-10T12:44:23.536Z,20.69
2023-03-10T12:49:41.824Z,21.57
2023-03-10T12:52:24.347Z,21.57
2023-03-10T12:58:14.741Z,21.72
2023-03-10T13:14:22.996Z,20.74
2023-03-10T13:18:19.514Z,21.32
2023-03-10T13:20:48.767Z,21.32
2023-03-10T13:29:27.933Z,20.21
2023-03-10T13:34:37.220Z,20.50
2023-03-10T13:37:14.248Z,20.50
2023-03-10T13:42:44.555Z,21.32
2023-03-10T13:45:25.934Z,21.32
2023-03-10T14:09:00.753Z,19.96
2023-03-10T14:40:49.481Z,19.07
2023-03-10T14:55:36.407Z,18.62
2023-03-10T15:03:06.315Z,18.27
2023-03-10T15:43:03.093Z,16.64
2023-03-10T15:46:42.243Z,16.48
2023-03-10T15:49:10.265Z,16.32
2023-03-10T15:51:39.393Z,16.54
2023-03-10T15:54:13.191Z,16.61
2023-03-10T15:56:48.416Z,16.31
2023-03-10T15:59:18.182Z,16.03
2023-03-10T16:04:21.145Z,15.54
2023-03-10T16:06:56.107Z,15.66
2023-03-10T16:09:38.642Z,15.93
2023-03-10T16:12:09.334Z,15.94
2023-03-10T16:14:49.245Z,16.19
2023-03-10T16:17:24.035Z,15.66
2023-03-10T16:19:54.572Z,15.80
2023-03-10T16:22:25.570Z,16.00
2023-03-10T16:24:59.353Z,15.85
2023-03-10T16:27:28.191Z,16.05
2023-03-10T16:29:56.539Z,16.54
2023-03-10T16:32:28.174Z,16.64
2023-03-10T16:34:56.955Z,16.65
2023-03-10T16:37:28.041Z,16.99
2023-03-10T16:40:00.307Z,16.91
2023-03-10T16:42:35.953Z,17.10
2023-03-10T16:45:06.153Z,17.15
2023-03-10T16:47:35.828Z,17.20
2023-03-10T16:50:09.406Z,17.21
2023-03-10T16:52:42.976Z,17.22
2023-03-10T16:55:21.084Z,17.17
2023-03-10T16:57:57.392Z,17.18
2023-03-10T17:00:31.107Z,16.93
2023-03-10T17:03:00.121Z,17.23
2023-03-10T17:05:37.354Z,16.87
2023-03-10T17:08:07.346Z,16.56
2023-03-10T17:10:44.295Z,16.40
2023-03-10T17:13:20.378Z,16.46
2023-03-10T17:15:55.708Z,16.21
2023-03-10T17:18:24.420Z,16.24
2023-03-10T17:20:53.260Z,15.98
2023-03-10T17:23:23.899Z,15.86
2023-03-10T17:25:58.696Z,15.72
2023-03-10T17:28:29.107Z,15.96
2023-03-10T17:31:10.041Z,15.92
2023-03-10T17:33:44.440Z,15.68
2023-03-10T17:38:57.273Z,15.76
2023-03-10T17:41:36.141Z,16.09
2023-03-10T17:44:07.225Z,15.91
2023-03-10T17:46:41.264Z,16.16
2023-03-10T17:51:48.167Z,16.24
2023-03-10T17:54:25.292Z,16.22
2023-03-10T17:56:55.712Z,16.44
2023-03-10T17:59:28.935Z,16.47
2023-03-10T18:02:07.392Z,16.71
2023-03-10T18:04:43.175Z,17.00
2023-03-10T18:07:14.299Z,16.92
2023-03-10T18:09:44.207Z,16.60
2023-03-10T18:12:17.270Z,16.28
2023-03-10T18:15:06.646Z,16.49
2023-03-10T18:17:43.597Z,16.35
2023-03-10T18:20:16.178Z,16.55
2023-03-10T18:22:45.745Z,16.28
2023-03-10T18:25:16.159Z,16.08
2023-03-10T18:27:54.314Z,16.20
2023-03-10T18:30:29.760Z,16.39
2023-03-10T18:35:45.442Z,16.61
2023-03-10T18:38:29.109Z,16.19
2023-03-10T18:43:39.859Z,15.97
2023-03-10T18:46:08.623Z,16.11
2023-03-10T18:48:37.095Z,16.20
2023-03-10T18:51:06.237Z,16.29
2023-03-10T18:53:40.205Z,16.16
2023-03-10T18:56:08.670Z,15.93
2023-03-10T18:58:42.214Z,15.94
2023-03-10T19:01:20.332Z,15.83
2023-03-10T19:06:35.457Z,15.98
2023-03-10T19:51:55.107Z,15.24
2023-03-10T19:54:26.295Z,15.17
2023-03-10T19:56:58.339Z,15.05
2023-03-10T20:02:22.273Z,15.17
2023-03-10T20:04:53.127Z,15.24
2023-03-10T20:07:31.324Z,15.16
2023-03-10T20:10:04.095Z,15.18
2023-03-10T20:15:11.532Z,15.42
2023-03-10T20:17:42.229Z,15.29
2023-03-10T20:20:19.088Z,15.25
2023-03-10T20:22:52.148Z,15.00
2023-03-10T20:25:27.601Z,14.95
2023-03-10T20:27:57.279Z,14.90
2023-03-10T20:30:28.308Z,14.97
2023-03-10T20:33:01.973Z,14.87
2023-03-10T20:35:40.170Z,14.87
2023-03-10T20:38:13.923Z,14.51
2023-03-10T20:40:44.279Z,14.13
2023-03-10T20:43:22.533Z,14.54
2023-03-10T20:45:57.296Z,14.43
2023-03-10T20:48:28.254Z,13.93
2023-03-10T20:51:02.091Z,14.27
2023-03-10T20:53:37.477Z,14.69
2023-03-10T20:56:10.400Z,14.28
2023-03-10T20:58:46.164Z,14.05
2023-03-10T21:01:21.527Z,13.97
2023-03-10T21:03:55.190Z,14.04
2023-03-10T21:06:27.388Z,14.21
2023-03-10T21:08:59.058Z,14.22
2023-03-10T21:11:28.102Z,14.16
2023-03-10T21:13:57.159Z,14.12
2023-03-10T21:16:25.246Z,14.42
2023-03-10T21:21:31.777Z,14.15
2023-03-10T21:24:01.111Z,14.03
2023-03-10T21:26:33.524Z,14.26
2023-03-10T21:29:06.261Z,14.36
2023-03-10T21:31:36.176Z,14.42
2023-03-10T21:34:10.200Z,14.26
2023-03-10T21:36:40.276Z,14.02
2023-03-10T21:39:09.112Z,14.06
2023-03-10T21:41:37.625Z,14.06
2023-03-10T21:44:06.246Z,14.11
2023-03-10T21:46:35.172Z,13.83
2023-03-10T21:49:04.102Z,14.28
2023-03-10T21:51:37.840Z,13.95
2023-03-10T21:54:14.817Z,14.03
2023-03-10T21:56:44.833Z,13.64
2023-03-10T21:59:12.500Z,13.96
2023-03-10T22:01:41.317Z,13.60
2023-03-10T22:04:14.424Z,13.71
2023-03-10T22:06:43.529Z,13.65
2023-03-10T22:09:16.135Z,13.79
2023-03-10T22:11:44.179Z,13.93
2023-03-10T22:14:15.220Z,13.91
2023-03-10T22:16:44.085Z,14.01
2023-03-10T22:19:12.401Z,13.57
2023-03-10T22:21:41.983Z,13.64
2023-03-10T22:24:10.807Z,13.65
2023-03-10T22:26:39.568Z,13.67
2023-03-10T22:29:07.437Z,13.53
2023-03-10T22:31:35.764Z,13.75
2023-03-10T22:34:03.461Z,13.48
2023-03-10T22:36:33.722Z,13.51
2023-03-10T22:39:02.141Z,13.65
2023-03-10T22:41:30.120Z,13.63
2023-03-10T22:43:59.066Z,13.63
2023-03-10T22:46:27.405Z,13.68
2023-03-10T22:48:55.741Z,13.65
2023-03-10T22:51:23.880Z,13.46
2023-03-10T22:53:51.551Z,13.62
2023-03-10T22:56:19.313Z,13.42
2023-03-10T22:58:47.284Z,13.46
2023-03-10T23:01:15.215Z,13.33
2023-03-10T23:03:42.972Z,13.52
2023-03-10T23:06:16.499Z,13.48
2023-03-10T23:08:44.432Z,13.56
2023-03-10T23:11:17.093Z,13.39
2023-03-10T23:13:44.994Z,12.94
2023-03-10T23:16:13.403Z,12.88
2023-03-10T23:18:41.368Z,13.12
2023-03-10T23:21:10.535Z,12.59
2023-03-10T23:23:48.849Z,12.50
2023-03-10T23:26:16.504Z,12.62
2023-03-10T23:28:44.841Z,12.74
2023-03-10T23:31:15.651Z,12.67
2023-03-10T23:33:44.773Z,11.97
2023-03-10T23:36:13.661Z,12.33
2023-03-10T23:38:41.381Z,12.03
2023-03-10T23:41:09.728Z,12.33
2023-03-10T23:43:38.242Z,12.30
2023-03-10T23:46:09.189Z,12.31
2023-03-10T23:48:37.176Z,11.68
2023-03-10T23:51:12.977Z,11.77
2023-03-10T23:53:43.127Z,12.13
2023-03-10T23:56:12.419Z,12.18
2023-03-10T23:58:40.383Z,12.20
